^^
Datos históricos de la estación: Murcia-Puente Tocinos
Diario Informe para Junio 21, 2019 Unidades:  Métrico    Ingés   Ambas
Diario Semanal Mensual Anual
  Máxima: Mínima: Promedio:
Temperatura: 30.1 °C 20.7 °C 24.2 °C
Punto de rocio: 18.7 °C 16.2 °C 17.7 °C
Humedad: 85% 43.2% 68%
Velocidad viento: 23.7km/h 0km/h 8.5km/h
Racha viento: 45.1km/h - -
Viento- - Este
Presión: 1014.3 hPa 1010.4 hPa -
Precipitación: 0.0 mm    
 
 
Tabla de datos para Junio 21, 2019
Hora Temperatura Punto de rocio Presión Viento Velocidad viento Racha viento Humedad Intensidad lluvia(por hora) Nubes
00:04 21.2 °C 18.1 °C 1011.2 hPa NE 11.1 km/h 22.5 km/h 82.3% 0.0 mm
00:09 21.2 °C 18.2 °C 1011.2 hPa NE 11.4 km/h 17.2 km/h 83% 0.0 mm
00:14 21.1 °C 18.1 °C 1011.2 hPa NE 11.9 km/h 17.7 km/h 83% 0.0 mm
00:19 21.1 °C 18.1 °C 1011.3 hPa NE 10.9 km/h 14.8 km/h 83% 0.0 mm
00:24 21.1 °C 18.1 °C 1011.3 hPa NE 9.5 km/h 15.6 km/h 83% 0.0 mm
00:29 21.1 °C 18.2 °C 1011.3 hPa NE 9.7 km/h 18.5 km/h 83.7% 0.0 mm
00:34 21 °C 18.2 °C 1011.3 hPa NE 10 km/h 19.3 km/h 84% 0.0 mm
00:39 21 °C 18.2 °C 1011.3 hPa NE 10.4 km/h 19.3 km/h 84% 0.0 mm
00:44 21 °C 18.2 °C 1011.3 hPa NE 11.1 km/h 16.1 km/h 84% 0.0 mm
00:49 21 °C 18.2 °C 1011.5 hPa NE 9.8 km/h 13 km/h 84% 0.0 mm
00:54 21.1 °C 18.3 °C 1011.5 hPa NE 7.6 km/h 12.9 km/h 84% 0.0 mm
00:59 21.1 °C 18.3 °C 1011.5 hPa ENE 6.5 km/h 11.1 km/h 84% 0.0 mm
01:04 21.2 °C 18.3 °C 1011.5 hPa NE 5 km/h 13.7 km/h 83.4% 0.0 mm
01:09 21.2 °C 18.2 °C 1011.4 hPa NE 5.5 km/h 14.5 km/h 83% 0.0 mm
01:14 21.2 °C 18.2 °C 1011.4 hPa NE 6.5 km/h 11.3 km/h 83% 0.0 mm
01:19 21.3 °C 18.3 °C 1011.4 hPa NE 6.5 km/h 11.1 km/h 83% 0.0 mm
01:24 21.3 °C 18.2 °C 1011.3 hPa ENE 6.5 km/h 14 km/h 82.6% 0.0 mm
01:29 21.3 °C 18.1 °C 1011.3 hPa NE 6.5 km/h 14.8 km/h 82% 0.0 mm
01:34 21.4 °C 18.1 °C 1011.3 hPa ENE 6.5 km/h 14.5 km/h 81.3% 0.0 mm
01:39 21.4 °C 18 °C 1011.1 hPa ENE 6.6 km/h 16.1 km/h 80.8% 0.0 mm
01:44 21.4 °C 17.8 °C 1011.1 hPa NE 6.9 km/h 16.7 km/h 80% 0.0 mm
01:49 21.4 °C 17.8 °C 1011.1 hPa NE 6.9 km/h 12.9 km/h 80% 0.0 mm
01:54 21.4 °C 17.8 °C 1011.0 hPa NE 6.9 km/h 11.9 km/h 80% 0.0 mm
01:59 21.5 °C 18.1 °C 1011.0 hPa NE 7.2 km/h 13 km/h 80.9% 0.0 mm
02:04 21.5 °C 18.2 °C 1011.0 hPa NE 7.6 km/h 12.9 km/h 81.5% 0.0 mm
02:09 21.6 °C 18.3 °C 1011.0 hPa NE 8 km/h 20.4 km/h 82% 0.0 mm
02:14 21.5 °C 18.3 °C 1011.0 hPa NE 8.7 km/h 20.9 km/h 82% 0.0 mm
02:19 21.4 °C 18.2 °C 1011.1 hPa NE 9 km/h 16.4 km/h 82% 0.0 mm
02:24 21.4 °C 18.2 °C 1011.1 hPa NE 9.5 km/h 16.7 km/h 82% 0.0 mm
02:29 21.3 °C 18.1 °C 1011.1 hPa NE 9.2 km/h 16.1 km/h 82% 0.0 mm
02:34 21.3 °C 18.1 °C 1011.1 hPa NNE 8.7 km/h 16.7 km/h 82% 0.0 mm
02:39 21.3 °C 18.1 °C 1011.1 hPa NNE 8.6 km/h 16.1 km/h 82% 0.0 mm
02:44 21.2 °C 18 °C 1011.1 hPa NNE 8.4 km/h 12.9 km/h 82.1% 0.0 mm
02:49 21.2 °C 18.2 °C 1011.2 hPa NE 7.8 km/h 12.2 km/h 82.9% 0.0 mm
02:54 21.2 °C 18.2 °C 1011.2 hPa NE 6.9 km/h 13 km/h 83% 0.0 mm
02:59 21.2 °C 18.2 °C 1011.2 hPa NE 6.9 km/h 13 km/h 83% 0.0 mm
03:04 21.2 °C 18.2 °C 1011.2 hPa NE 6.9 km/h 12.9 km/h 83% 0.0 mm
03:09 21.2 °C 18.2 °C 1011.2 hPa NE 6.8 km/h 11.3 km/h 83% 0.0 mm
03:14 21.2 °C 18.2 °C 1011.2 hPa NE 6.5 km/h 9.5 km/h 83% 0.0 mm
03:19 21.2 °C 18.4 °C 1011.2 hPa NE 5.9 km/h 9.7 km/h 83.8% 0.0 mm
03:24 21.2 °C 18.4 °C 1011.2 hPa NNE 5 km/h 8.4 km/h 84% 0.0 mm
03:29 21.2 °C 18.4 °C 1011.2 hPa NE 4.9 km/h 8 km/h 84% 0.0 mm
03:34 21.2 °C 18.4 °C 1011.2 hPa NE 4.7 km/h 8 km/h 84% 0.0 mm
03:39 21.1 °C 18.3 °C 1011.1 hPa NE 4.7 km/h 8.4 km/h 83.9% 0.0 mm
03:44 21.1 °C 18.1 °C 1011.1 hPa NE 4.7 km/h 9.5 km/h 83.1% 0.0 mm
03:49 21.1 °C 18.3 °C 1011.1 hPa NNE 4.7 km/h 9.7 km/h 83.8% 0.0 mm
03:54 21.1 °C 18.3 °C 1011.1 hPa ENE 4.7 km/h 8 km/h 84% 0.0 mm
03:59 21 °C 18.2 °C 1011.1 hPa NE 4.3 km/h 8 km/h 84% 0.0 mm
04:04 21 °C 18.2 °C 1011.1 hPa NNE 3.9 km/h 8 km/h 83.8% 0.0 mm
04:09 21 °C 18.1 °C 1011.0 hPa NNE 3.6 km/h 8 km/h 83.8% 0.0 mm
04:14 21.1 °C 18.2 °C 1011.0 hPa NNE 3.2 km/h 8 km/h 83.8% 0.0 mm
04:19 21.1 °C 18.1 °C 1011.1 hPa North 2.8 km/h 7.4 km/h 83% 0.0 mm
04:24 21.1 °C 18.1 °C 1011.1 hPa North 2.2 km/h 8 km/h 83% 0.0 mm
04:29 21.1 °C 18.1 °C 1011.1 hPa NNO 2.6 km/h 7.4 km/h 83% 0.0 mm
04:34 21.1 °C 18.1 °C 1011.1 hPa NNO 3.2 km/h 8 km/h 83% 0.0 mm
04:39 21.1 °C 18.1 °C 1011.1 hPa North 2.8 km/h 7.4 km/h 83% 0.0 mm
04:44 21 °C 18 °C 1011.1 hPa NE 2.2 km/h 8 km/h 83.2% 0.0 mm
04:49 20.9 °C 18.1 °C 1011.1 hPa ENE 2.9 km/h 8 km/h 84% 0.0 mm
04:54 20.9 °C 18.1 °C 1010.9 hPa NE 3.9 km/h 8 km/h 84% 0.0 mm
04:59 20.9 °C 18.1 °C 1010.9 hPa NE 3.6 km/h 8 km/h 84% 0.0 mm
05:04 20.9 °C 18.1 °C 1011.2 hPa NNE 3.2 km/h 4.8 km/h 84% 0.0 mm
05:09 20.9 °C 18.1 °C 1011.2 hPa NNE 2 km/h 4.8 km/h 84% 0.0 mm
05:14 20.9 °C 18.1 °C 1011.2 hPa Calm   4.7 km/h 84% 0.0 mm
05:19 20.9 °C 18.1 °C 1011.2 hPa NNE 0.9 km/h 5.8 km/h 84% 0.0 mm
05:24 20.9 °C 18.1 °C 1011.0 hPa NNE 2.2 km/h 6.4 km/h 84% 0.0 mm
05:29 20.9 °C 18.1 °C 1011.0 hPa NNE 2.2 km/h 4.8 km/h 84% 0.0 mm
05:34 20.9 °C 18.1 °C 1011.1 hPa NNE 2.2 km/h 4.7 km/h 84% 0.0 mm
05:39 20.9 °C 18.1 °C 1011.1 hPa NNE 1.4 km/h 4.8 km/h 84% 0.0 mm
05:44 21 °C 18.2 °C 1011.1 hPa Calm   7.4 km/h 84% 0.0 mm
05:49 20.9 °C 18 °C 1011.1 hPa NE 1 km/h 8.4 km/h 83.2% 0.0 mm
05:54 20.9 °C 18.1 °C 1010.8 hPa NE 2.9 km/h 8 km/h 84% 0.0 mm
05:59 20.8 °C 18.1 °C 1010.8 hPa Este 2.9 km/h 9.3 km/h 84% 0.0 mm
06:04 20.7 °C 17.9 °C 1011.2 hPa ESE 2.9 km/h 9.7 km/h 84% 0.0 mm
06:09 20.7 °C 17.9 °C 1011.2 hPa NE 3.6 km/h 8 km/h 84.1% 0.0 mm
06:14 20.7 °C 18.1 °C 1011.2 hPa NE 4.7 km/h 8 km/h 85% 0.0 mm
06:19 20.7 °C 18.1 °C 1011.2 hPa NE 3 km/h 5.8 km/h 85% 0.0 mm
06:24 20.7 °C 18 °C 1011.2 hPa Calm   9.3 km/h 84.6% 0.0 mm
06:29 20.7 °C 18 °C 1011.2 hPa ESE 1.7 km/h 9.7 km/h 84.7% 0.0 mm
06:34 20.7 °C 18 °C 1011.2 hPa ESE 4.7 km/h 8 km/h 84.5% 0.0 mm
06:39 20.7 °C 18 °C 1011.2 hPa Este 4.4 km/h 8 km/h 84.7% 0.0 mm
06:44 20.7 °C 17.9 °C 1011.2 hPa ENE 3.9 km/h 8 km/h 84% 0.0 mm
06:49 20.7 °C 17.9 °C 1011.3 hPa ENE 3.3 km/h 8 km/h 84.1% 0.0 mm
06:54 20.8 °C 18 °C 1011.3 hPa Este 2.2 km/h 8 km/h 84% 0.0 mm
06:59 20.8 °C 18 °C 1011.3 hPa NE 2.6 km/h 8 km/h 84% 0.0 mm
07:04 20.8 °C 18 °C 1011.4 hPa NE 3.2 km/h 8.4 km/h 84.1% 0.0 mm
07:09 20.7 °C 18.1 °C 1011.4 hPa NE 3.8 km/h 8 km/h 85% 0.0 mm
07:14 20.8 °C 18.2 °C 1011.4 hPa NNE 4.7 km/h 8 km/h 85% 0.0 mm
07:19 20.8 °C 18.2 °C 1011.5 hPa NNE 4 km/h 5.8 km/h 85% 0.0 mm
07:24 20.8 °C 18.2 °C 1011.5 hPa NNE 2.9 km/h 6.4 km/h 85% 0.0 mm
07:29 20.8 °C 18.2 °C 1011.5 hPa NNE 2.7 km/h 7.4 km/h 85% 0.0 mm
07:34 20.8 °C 18.1 °C 1011.7 hPa North 2.2 km/h 8 km/h 84.8% 0.0 mm
07:39 20.8 °C 18.2 °C 1011.7 hPa North 2.6 km/h 8 km/h 85% 0.0 mm
07:44 20.9 °C 18.3 °C 1011.7 hPa North 3.2 km/h 8 km/h 85% 0.0 mm
07:49 20.9 °C 18.3 °C 1012.0 hPa North 3.1 km/h 6.4 km/h 85% 0.0 mm
07:54 20.9 °C 18.3 °C 1012.0 hPa NNE 2.9 km/h 7.4 km/h 85% 0.0 mm
07:59 20.9 °C 18.3 °C 1012.0 hPa NNE 3 km/h 8 km/h 85% 0.0 mm
08:04 20.9 °C 18.3 °C 1012.2 hPa NNO 3.2 km/h 8 km/h 85% 0.0 mm
08:09 21 °C 18.4 °C 1012.2 hPa NNO 3.1 km/h 5.6 km/h 85% 0.0 mm
08:14 21.1 °C 18.5 °C 1012.2 hPa NNO 2.9 km/h 5.6 km/h 85% 0.0 mm
08:19 21.2 °C 18.6 °C 1012.3 hPa NNO 2.7 km/h 4.8 km/h 85% 0.0 mm
08:24 21.3 °C 18.6 °C 1012.3 hPa NNO 2.2 km/h 5.8 km/h 84.4% 0.0 mm
08:29 21.6 °C 18.6 °C 1012.3 hPa NNO 2.2 km/h 6.4 km/h 83.3% 0.0 mm
08:34 21.7 °C 18.6 °C 1012.4 hPa NNO 2.2 km/h 6.4 km/h 82.8% 0.0 mm
08:39 21.8 °C 18.7 °C 1012.4 hPa NNO 2.2 km/h 5.8 km/h 82.3% 0.0 mm
08:44 22 °C 18.3 °C 1012.4 hPa NNE 2.2 km/h 7.4 km/h 80% 0.0 mm
08:49 22.2 °C 18.2 °C 1012.5 hPa NE 2.6 km/h 8 km/h 78.5% 0.0 mm
08:54 22.3 °C 18.1 °C 1012.5 hPa NNE 3.2 km/h 8 km/h 77.3% 0.0 mm
08:59 22.4 °C 18.1 °C 1012.5 hPa NNE 3.1 km/h 8 km/h 76.7% 0.0 mm
09:04 22.4 °C 18 °C 1012.6 hPa North 2.9 km/h 5.8 km/h 76% 0.0 mm
09:09 22.4 °C 18 °C 1012.6 hPa NE 2.7 km/h 6.4 km/h 76% 0.0 mm
09:14 22.4 °C 17.9 °C 1012.6 hPa NE 2.2 km/h 7.4 km/h 76% 0.0 mm
09:19 22.3 °C 17.8 °C 1012.7 hPa ENE 2.8 km/h 8 km/h 75.3% 0.0 mm
09:24 22.3 °C 17.9 °C 1012.7 hPa ENE 3.9 km/h 8 km/h 76.1% 0.0 mm
09:29 22.4 °C 18 °C 1012.7 hPa ESE 3.2 km/h 8 km/h 76% 0.0 mm
09:34 22.7 °C 18.1 °C 1012.8 hPa NE 2.2 km/h 9.3 km/h 75.1% 0.0 mm
09:39 22.9 °C 18.2 °C 1012.8 hPa NNO 2.9 km/h 9.7 km/h 74.8% 0.0 mm
09:44 23.2 °C 18.2 °C 1012.8 hPa NE 3.9 km/h 9.5 km/h 73.5% 0.0 mm
09:49 23.3 °C 17.9 °C 1012.8 hPa NE 4.2 km/h 13 km/h 72% 0.0 mm
09:54 23.2 °C 17.9 °C 1012.8 hPa NE 4.7 km/h 13 km/h 72% 0.0 mm
09:59 23.1 °C 17.7 °C 1012.8 hPa Este 5.8 km/h 11.3 km/h 72% 0.0 mm
10:04 23.2 °C 17.8 °C 1012.8 hPa ESE 7.6 km/h 11.1 km/h 71.9% 0.0 mm
10:09 23.4 °C 17.9 °C 1012.6 hPa NE 6.6 km/h 11.3 km/h 71% 0.0 mm
10:14 23.7 °C 17.9 °C 1012.6 hPa ENE 4.7 km/h 11.1 km/h 69.7% 0.0 mm
10:19 23.8 °C 17.9 °C 1012.6 hPa NE 4.8 km/h 11.3 km/h 69.4% 0.0 mm
10:24 24.1 °C 17.9 °C 1012.6 hPa NE 5 km/h 11.1 km/h 68.1% 0.0 mm
10:29 24.3 °C 18 °C 1012.6 hPa ENE 4.6 km/h 11.3 km/h 67.7% 0.0 mm
10:34 24.3 °C 18 °C 1012.6 hPa ENE 3.9 km/h 11.3 km/h 67.5% 0.0 mm
10:39 24.1 °C 17.8 °C 1012.6 hPa NE 4.8 km/h 11.3 km/h 67.8% 0.0 mm
10:44 23.9 °C 17.6 °C 1012.6 hPa ESE 6.5 km/h 10 km/h 67.8% 0.0 mm
10:49 24 °C 17.5 °C 1012.6 hPa SSE 5.5 km/h 10 km/h 67.1% 0.0 mm
10:54 24.2 °C 17.4 °C 1012.6 hPa SSE 3.9 km/h 10 km/h 65.9% 0.0 mm
10:59 24.3 °C 17.5 °C 1012.6 hPa SE 4.6 km/h 14 km/h 65.9% 0.0 mm
11:04 24.5 °C 17.7 °C 1012.6 hPa NE 5.8 km/h 14.8 km/h 66% 0.0 mm
11:09 24.8 °C 17.5 °C 1012.5 hPa ESE 6.2 km/h 14.5 km/h 64.1% 0.0 mm
11:14 25 °C 17.4 °C 1012.5 hPa ESE 6.9 km/h 12.9 km/h 62.6% 0.0 mm
11:19 25.2 °C 17.1 °C 1012.5 hPa ENE 5.8 km/h 9.5 km/h 60.8% 0.0 mm
11:24 25.3 °C 17.1 °C 1012.4 hPa ONO 3.9 km/h 11.9 km/h 60.3% 0.0 mm
11:29 25.4 °C 17.3 °C 1012.4 hPa NNE 4.3 km/h 11.9 km/h 60.9% 0.0 mm
11:34 25.5 °C 17.4 °C 1012.5 hPa NNE 5 km/h 11.3 km/h 60.6% 0.0 mm
11:39 25.7 °C 17.2 °C 1012.5 hPa NE 5 km/h 9.7 km/h 59.2% 0.0 mm
11:44 25.9 °C 17.2 °C 1012.5 hPa NNO 5 km/h 10 km/h 58.4% 0.0 mm
11:49 26.2 °C 17.2 °C 1012.5 hPa North 5.3 km/h 13 km/h 57.7% 0.0 mm
11:54 26.2 °C 17 °C 1012.3 hPa NNO 5.8 km/h 12.9 km/h 56.7% 0.0 mm
11:59 26.1 °C 16.7 °C 1012.3 hPa NO 5.8 km/h 12.2 km/h 56.4% 0.0 mm
12:04 26.1 °C 16.6 °C 1012.3 hPa ONO 5.8 km/h 13 km/h 56% 0.0 mm
12:09 26.1 °C 16.4 °C 1012.3 hPa Oeste 5.8 km/h 10 km/h 55.4% 0.0 mm
12:14 26.2 °C 16.4 °C 1012.3 hPa Oeste 5.8 km/h 10 km/h 55% 0.0 mm
12:19 26.4 °C 16.4 °C 1012.3 hPa ONO 5.8 km/h 10 km/h 54.3% 0.0 mm
12:24 26.6 °C 16.3 °C 1012.2 hPa Oeste 5.8 km/h 11.9 km/h 53.5% 0.0 mm
12:29 26.7 °C 16.3 °C 1012.2 hPa Oeste 5.8 km/h 11.3 km/h 52.8% 0.0 mm
12:34 26.8 °C 16.4 °C 1012.2 hPa Oeste 5.8 km/h 13 km/h 53% 0.0 mm
12:39 26.9 °C 16.4 °C 1012.0 hPa OSO 6.5 km/h 14.8 km/h 52.5% 0.0 mm
12:44 26.9 °C 16.5 °C 1012.0 hPa SO 7.6 km/h 14.5 km/h 52.9% 0.0 mm
12:49 27.1 °C 16.3 °C 1012.0 hPa SSO 7.2 km/h 11.3 km/h 51.8% 0.0 mm
12:54 27.4 °C 16.5 °C 1011.9 hPa SE 6.5 km/h 9.7 km/h 51.3% 0.0 mm
12:59 27.9 °C 16.4 °C 1011.9 hPa Sur 5.7 km/h 9.7 km/h 49.7% 0.0 mm
13:04 28.2 °C 16.7 °C 1011.9 hPa North 4.7 km/h 11.3 km/h 49.6% 0.0 mm
13:09 28.3 °C 16.8 °C 1011.8 hPa ENE 4.7 km/h 11.3 km/h 49.8% 0.0 mm
13:14 28.3 °C 16.7 °C 1011.8 hPa NE 4.7 km/h 14.8 km/h 49.4% 0.0 mm
13:19 28.2 °C 16.7 °C 1011.8 hPa ENE 6.1 km/h 15.6 km/h 49.8% 0.0 mm
13:24 28.3 °C 16.7 °C 1011.7 hPa NE 8.4 km/h 16.1 km/h 49.7% 0.0 mm
13:29 28.3 °C 16.5 °C 1011.7 hPa ENE 7.8 km/h 18.5 km/h 48.7% 0.0 mm
13:34 28.2 °C 16.3 °C 1011.7 hPa ENE 6.9 km/h 19.3 km/h 48.4% 0.0 mm
13:39 28.3 °C 16.2 °C 1011.5 hPa NNE 6.2 km/h 14.8 km/h 47.9% 0.0 mm
13:44 28.5 °C 16.6 °C 1011.5 hPa NE 5 km/h 14.8 km/h 48.7% 0.0 mm
13:49 28.8 °C 16.8 °C 1011.5 hPa ENE 5.5 km/h 13 km/h 48.3% 0.0 mm
13:54 29.1 °C 16.5 °C 1011.3 hPa NNE 6.5 km/h 13 km/h 46.6% 0.0 mm
13:59 29.3 °C 16.7 °C 1011.3 hPa NNE 6.5 km/h 14.8 km/h 46.8% 0.0 mm
14:04 29.3 °C 16.7 °C 1011.3 hPa NE 6.5 km/h 14.5 km/h 46.8% 0.0 mm
14:09 29.2 °C 16.5 °C 1011.3 hPa North 6.5 km/h 12.9 km/h 46.3% 0.0 mm
14:14 29.3 °C 17 °C 1011.3 hPa Este 6.5 km/h 13 km/h 47.6% 0.0 mm
14:19 29.4 °C 17 °C 1011.3 hPa ESE 6.5 km/h 18 km/h 47.4% 0.0 mm
14:24 29.4 °C 16.7 °C 1011.0 hPa Este 6.5 km/h 19.3 km/h 46.5% 0.0 mm
14:29 29.3 °C 16.8 °C 1011.0 hPa Sur 7.2 km/h 19.3 km/h 46.8% 0.0 mm
14:34 29.5 °C 16.7 °C 1011.0 hPa NE 8.4 km/h 13 km/h 46.2% 0.0 mm
14:39 29.6 °C 16.5 °C 1010.9 hPa NNE 7.6 km/h 12.9 km/h 45.3% 0.0 mm
14:44 29.7 °C 16.5 °C 1010.9 hPa NNO 6.5 km/h 11.1 km/h 45% 0.0 mm
14:49 29.7 °C 16.6 °C 1010.9 hPa North 6.2 km/h 19 km/h 45.3% 0.0 mm
14:54 29.7 °C 16.3 °C 1010.8 hPa NNE 5.8 km/h 20.4 km/h 44.4% 0.0 mm
14:59 29.6 °C 16.2 °C 1010.8 hPa NNE 7.6 km/h 20.9 km/h 44.6% 0.0 mm
15:04 29.8 °C 16.4 °C 1010.8 hPa North 10.3 km/h 19.3 km/h 44.3% 0.0 mm
15:09 30 °C 16.2 °C 1010.7 hPa NNE 9.6 km/h 17.7 km/h 43.2% 0.0 mm
15:14 30.1 °C 16.3 °C 1010.7 hPa NE 8.4 km/h 16.4 km/h 43.3% 0.0 mm
15:19 30 °C 17.6 °C 1010.7 hPa ESE 9.7 km/h 25.9 km/h 47.4% 0.0 mm
15:24 29.8 °C 17.8 °C 1010.6 hPa ESE 11.9 km/h 30.6 km/h 48.6% 0.0 mm
15:29 29.7 °C 17.8 °C 1010.6 hPa ESE 13.9 km/h 30.6 km/h 48.9% 0.0 mm
15:34 29.5 °C 17.7 °C 1010.6 hPa ESE 17.2 km/h 30.6 km/h 49.2% 0.0 mm
15:39 29.5 °C 17.9 °C 1010.6 hPa ESE 17.6 km/h 30.6 km/h 49.6% 0.0 mm
15:44 29.7 °C 17.9 °C 1010.6 hPa ESE 18.4 km/h 37 km/h 49.3% 0.0 mm
15:49 29.5 °C 17.8 °C 1010.6 hPa ESE 19 km/h 37 km/h 49.6% 0.0 mm
15:54 29.6 °C 17.8 °C 1010.5 hPa SE 20.1 km/h 32.2 km/h 49.2% 0.0 mm
15:59 29.7 °C 17.9 °C 1010.5 hPa ESE 18.5 km/h 32.2 km/h 49.2% 0.0 mm
16:04 29.7 °C 17.9 °C 1010.5 hPa SE 16.1 km/h 31.5 km/h 49% 0.0 mm
16:09 29.7 °C 17.9 °C 1010.4 hPa ESE 17 km/h 32.2 km/h 49.2% 0.0 mm
16:14 29.6 °C 17.9 °C 1010.4 hPa ESE 18.4 km/h 30.6 km/h 49.6% 0.0 mm
16:19 29.3 °C 17.8 °C 1010.4 hPa ESE 17.9 km/h 30.9 km/h 50% 0.0 mm
16:24 29.2 °C 17.8 °C 1010.4 hPa ESE 17.2 km/h 30.6 km/h 50.3% 0.0 mm
16:29 29.1 °C 17.8 °C 1010.4 hPa ESE 18.6 km/h 35.2 km/h 50.3% 0.0 mm
16:34 29.1 °C 17.9 °C 1010.6 hPa ESE 20.9 km/h 35.4 km/h 50.9% 0.0 mm
16:39 28.9 °C 17.8 °C 1010.6 hPa ESE 20.9 km/h 38.9 km/h 51.4% 0.0 mm
16:44 28.6 °C 18 °C 1010.6 hPa ESE 20.9 km/h 38.9 km/h 52.7% 0.0 mm
16:49 28.4 °C 18 °C 1010.6 hPa ESE 21.5 km/h 38.9 km/h 53.2% 0.0 mm
16:54 28.2 °C 17.9 °C 1010.6 hPa ESE 22.5 km/h 44.4 km/h 53.7% 0.0 mm
16:59 28 °C 17.9 °C 1010.6 hPa ESE 22.5 km/h 45.1 km/h 54.4% 0.0 mm
17:04 27.9 °C 17.9 °C 1010.7 hPa Este 22.5 km/h 35.4 km/h 54.6% 0.0 mm
17:09 28.1 °C 17.9 °C 1010.7 hPa ESE 21.6 km/h 33.8 km/h 54% 0.0 mm
17:14 28.1 °C 17.9 °C 1010.7 hPa ESE 20.1 km/h 34.3 km/h 54% 0.0 mm
17:19 28 °C 17.9 °C 1010.9 hPa ESE 20.1 km/h 37 km/h 54.2% 0.0 mm
17:24 27.7 °C 17.9 °C 1010.9 hPa ESE 20.1 km/h 37 km/h 55.2% 0.0 mm
17:29 27.7 °C 18.1 °C 1010.9 hPa ESE 20.9 km/h 37 km/h 55.9% 0.0 mm
17:34 27.8 °C 18 °C 1010.9 hPa ESE 22.1 km/h 35.2 km/h 55.1% 0.0 mm
17:39 27.7 °C 17.8 °C 1010.9 hPa ESE 21.3 km/h 38.9 km/h 55% 0.0 mm
17:44 27.5 °C 17.8 °C 1010.9 hPa ESE 20.1 km/h 38.9 km/h 55.7% 0.0 mm
17:49 27.5 °C 17.9 °C 1011.0 hPa ESE 20.9 km/h 38.6 km/h 56% 0.0 mm
17:54 27.2 °C 17.9 °C 1011.0 hPa ESE 22.1 km/h 38.9 km/h 56.9% 0.0 mm
17:59 27.1 °C 18 °C 1011.0 hPa ESE 22.7 km/h 38.6 km/h 57.5% 0.0 mm
18:04 27.2 °C 18.1 °C 1011.1 hPa SE 23.7 km/h 37 km/h 57.6% 0.0 mm
18:09 27.2 °C 18.1 °C 1011.1 hPa ESE 21.8 km/h 37 km/h 57.6% 0.0 mm
18:14 26.9 °C 18 °C 1011.1 hPa ESE 19 km/h 37 km/h 58.2% 0.0 mm
18:19 26.9 °C 18.1 °C 1011.1 hPa ESE 19.4 km/h 35.4 km/h 58.5% 0.0 mm
18:24 27 °C 18.1 °C 1011.0 hPa ESE 20.1 km/h 30.6 km/h 58.1% 0.0 mm
18:29 26.8 °C 18.1 °C 1011.0 hPa ESE 19.7 km/h 33.3 km/h 59% 0.0 mm
18:34 26.7 °C 18.2 °C 1011.1 hPa ESE 19 km/h 35.9 km/h 59.7% 0.0 mm
18:39 26.6 °C 18.2 °C 1011.1 hPa ESE 19.3 km/h 35.4 km/h 60% 0.0 mm
18:44 26.3 °C 18.1 °C 1011.1 hPa ESE 19.8 km/h 35.4 km/h 60.6% 0.0 mm
18:49 26.3 °C 18.2 °C 1011.2 hPa ESE 19.8 km/h 32.2 km/h 61% 0.0 mm
18:54 26.2 °C 18.1 °C 1011.2 hPa ESE 19.8 km/h 30.6 km/h 61% 0.0 mm
18:59 26.1 °C 18 °C 1011.2 hPa ESE 19.9 km/h 30.6 km/h 61.2% 0.0 mm
19:04 26.1 °C 18 °C 1011.3 hPa ESE 20.1 km/h 29.6 km/h 61% 0.0 mm
19:09 26.1 °C 18 °C 1011.3 hPa ESE 19 km/h 29.6 km/h 61.1% 0.0 mm
19:14 26.1 °C 18 °C 1011.3 hPa ESE 17.2 km/h 29 km/h 61.1% 0.0 mm
19:19 26 °C 18 °C 1011.3 hPa ESE 16.9 km/h 29.1 km/h 61.2% 0.0 mm
19:24 25.9 °C 18 °C 1011.3 hPa ESE 16.4 km/h 29.6 km/h 61.8% 0.0 mm
19:29 25.8 °C 17.9 °C 1011.3 hPa ESE 16.7 km/h 29 km/h 62% 0.0 mm
19:34 25.8 °C 17.9 °C 1011.4 hPa ESE 17.2 km/h 25.9 km/h 62% 0.0 mm
19:39 25.7 °C 17.9 °C 1011.4 hPa Este 16.6 km/h 26.2 km/h 62% 0.0 mm
19:44 25.6 °C 17.8 °C 1011.4 hPa ESE 15.6 km/h 25.9 km/h 62% 0.0 mm
19:49 25.6 °C 17.8 °C 1011.5 hPa ESE 15.3 km/h 22.5 km/h 62% 0.0 mm
19:54 25.5 °C 17.8 °C 1011.5 hPa ESE 14.8 km/h 28.2 km/h 62.3% 0.0 mm
19:59 25.5 °C 17.8 °C 1011.5 hPa ESE 14.8 km/h 27.4 km/h 62.7% 0.0 mm
20:04 25.5 °C 17.7 °C 1011.5 hPa ESE 14.8 km/h 24.1 km/h 62.1% 0.0 mm
20:09 25.3 °C 17.6 °C 1011.5 hPa ESE 15.1 km/h 29.6 km/h 62.3% 0.0 mm
20:14 25.3 °C 17.7 °C 1011.5 hPa ESE 15.6 km/h 29 km/h 63% 0.0 mm
20:19 25.2 °C 17.7 °C 1011.7 hPa ESE 15.6 km/h 22.5 km/h 63% 0.0 mm
20:24 25.2 °C 17.7 °C 1011.7 hPa ESE 15.6 km/h 25.9 km/h 63% 0.0 mm
20:29 25.2 °C 17.7 °C 1011.7 hPa ESE 14.9 km/h 25.7 km/h 63% 0.0 mm
20:34 25.1 °C 17.6 °C 1011.9 hPa ESE 13.7 km/h 24.1 km/h 63% 0.0 mm
20:39 25 °C 17.5 °C 1011.9 hPa ESE 13.1 km/h 24.1 km/h 63% 0.0 mm
20:44 25 °C 17.4 °C 1011.9 hPa ESE 12.2 km/h 22.2 km/h 63% 0.0 mm
20:49 24.9 °C 17.4 °C 1012.1 hPa ESE 12.5 km/h 22.5 km/h 63.1% 0.0 mm
20:54 24.9 °C 17.6 °C 1012.1 hPa ESE 13 km/h 20.9 km/h 64% 0.0 mm
20:59 24.8 °C 17.5 °C 1012.1 hPa ESE 12.7 km/h 20.9 km/h 64% 0.0 mm
21:04 24.8 °C 17.5 °C 1012.2 hPa Este 12.2 km/h 18.5 km/h 64% 0.0 mm
21:09 24.8 °C 17.5 °C 1012.2 hPa Este 10.9 km/h 19.3 km/h 64% 0.0 mm
21:14 24.7 °C 17.4 °C 1012.2 hPa ENE 8.7 km/h 16.7 km/h 64% 0.0 mm
21:19 24.6 °C 17.3 °C 1012.5 hPa Este 8.6 km/h 16.1 km/h 64% 0.0 mm
21:24 24.6 °C 17.3 °C 1012.5 hPa Este 8.4 km/h 15.6 km/h 64% 0.0 mm
21:29 24.4 °C 17.2 °C 1012.5 hPa Este 8.4 km/h 16.1 km/h 64% 0.0 mm
21:34 24.4 °C 17.1 °C 1012.5 hPa Este 8.4 km/h 13.7 km/h 64% 0.0 mm
21:39 24.3 °C 17.1 °C 1012.5 hPa Este 7.8 km/h 14.5 km/h 64% 0.0 mm
21:44 24.2 °C 17 °C 1012.5 hPa ENE 6.9 km/h 14.5 km/h 64% 0.0 mm
21:49 24.2 °C 17.1 °C 1012.7 hPa Este 6.7 km/h 14 km/h 64.5% 0.0 mm
21:54 24.2 °C 16.9 °C 1012.7 hPa ESE 6.5 km/h 14.8 km/h 64% 0.0 mm
21:59 24.1 °C 16.9 °C 1012.7 hPa Este 6.9 km/h 14.8 km/h 64% 0.0 mm
22:04 24.1 °C 16.9 °C 1012.9 hPa Este 7.6 km/h 14.5 km/h 64.1% 0.0 mm
22:09 24 °C 17 °C 1012.9 hPa Este 6.6 km/h 10 km/h 64.8% 0.0 mm
22:14 23.9 °C 16.9 °C 1012.9 hPa ENE 5 km/h 9.7 km/h 65% 0.0 mm
22:19 23.8 °C 16.9 °C 1013.1 hPa ENE 5 km/h 10 km/h 65.1% 0.0 mm
22:24 23.7 °C 17 °C 1013.1 hPa NE 5 km/h 11.9 km/h 66% 0.0 mm
22:29 23.6 °C 17 °C 1013.1 hPa NE 6 km/h 13.7 km/h 66.5% 0.0 mm
22:34 23.4 °C 17 °C 1013.3 hPa ENE 7.6 km/h 14.8 km/h 67% 0.0 mm
22:39 23.3 °C 17.1 °C 1013.3 hPa NE 7.3 km/h 17.2 km/h 67.7% 0.0 mm
22:44 23.2 °C 17 °C 1013.3 hPa NE 6.9 km/h 17.7 km/h 68% 0.0 mm
22:49 23.2 °C 17.1 °C 1013.6 hPa NE 7.9 km/h 16.1 km/h 68.8% 0.0 mm
22:54 23.1 °C 17.1 °C 1013.6 hPa NE 9.5 km/h 18.5 km/h 69% 0.0 mm
22:59 23 °C 17 °C 1013.6 hPa NE 9.5 km/h 19.3 km/h 69% 0.0 mm
23:04 22.9 °C 16.9 °C 1013.7 hPa NE 9.5 km/h 14.5 km/h 69.1% 0.0 mm
23:09 22.9 °C 17.1 °C 1013.7 hPa ENE 8.6 km/h 14.5 km/h 70% 0.0 mm
23:14 22.9 °C 17.1 °C 1013.7 hPa ENE 6.9 km/h 10.3 km/h 70% 0.0 mm
23:19 22.8 °C 17.1 °C 1014.1 hPa NE 6.7 km/h 11.3 km/h 70% 0.0 mm
23:24 22.8 °C 17.1 °C 1014.1 hPa ENE 6.5 km/h 11.3 km/h 70% 0.0 mm
23:29 22.8 °C 17.1 °C 1014.1 hPa Este 5.8 km/h 9.7 km/h 70% 0.0 mm
23:34 22.8 °C 17.1 °C 1014.3 hPa NE 4.7 km/h 9.5 km/h 70% 0.0 mm
23:39 22.8 °C 17.1 °C 1014.3 hPa NE 4.8 km/h 11.9 km/h 70% 0.0 mm
23:44 22.8 °C 17 °C 1014.3 hPa NE 5 km/h 13 km/h 70% 0.0 mm
23:49 22.7 °C 17 °C 1014.3 hPa NE 5.7 km/h 13 km/h 70% 0.0 mm
23:54 22.7 °C 17 °C 1014.3 hPa NE 6.9 km/h 12.9 km/h 70.5% 0.0 mm
23:59 22.6 °C 17.1 °C 1014.3 hPa NE 6.9 km/h 11.3 km/h 71% 0.0 mm
Murcia-Puente Tocinos, España
Compliments of Weather Underground - 3 mb

La estación de MeteoMurcia.com, publica sus datos en los siguientes proyectos:

Weather Underground PWS IMURCIAP2 Meteoclimatic www.awekas.at

W3Counter
Web Analytics